Phuket, Thailand

10:09 AM ICT on August 28, 2014 (GMT +0700)
Phuket International | Change Station
CLOSE
Current Station
Airport
Location: Phuket,
Elevation: 30 ft
Nearby Weather Stations

Elev 30 ft 8.11 °N, 98.32 °E | Updated 9 minutes ago

Mostly Cloudy
Mostly Cloudy
77 °F
Feels Like 77 °F
N
4
Wind Variable Wind from East

Today
High -- | Low -- °F
--% Chance of Precip.
Yesterday
High -- | Low -- °F
Precip. -- in
6:19 AM 6:36 PM
Waxing Crescent, 6% visible
Pressure 29.86 in
Visibility 5.0 miles
Clouds Scattered Clouds 1800 ft
Mostly Cloudy 12000 ft
Mostly Cloudy 30000 ft
Dew Point 73 °F
Humidity 89%
Rainfall 0.00 in
Snow Depth Not available.
UV 6 out of 12
Pollen Not available.
Air Quality Not available.
Flu Activity Not available.
METAR VTSP 280300Z 10003KT 8000 SCT018 BKN120 BKN300 25/23 Q1011 A2988

More Conditions Fewer Conditions

Pressure 29.86 in
Visibility 5.0 miles
Clouds Scattered Clouds 1800 ft
Mostly Cloudy 12000 ft
Mostly Cloudy 30000 ft
Dew Point 73 °F
Humidity 89%
Rainfall 0.00 in
Snow Depth Not available.
UV 6 out of 12
Pollen Not available.
Air Quality Not available.
Flu Activity Not available.
METAR VTSP 280300Z 10003KT 8000 SCT018 BKN120 BKN300 25/23 Q1011 A2988

More Conditions Fewer Conditions

10-Day Weather Forecast

Almanac

Astronomy

Aug. 28, 2014 Rise Set
Actual Time 6:19 AM ICT 6:36 PM ICT
Civil Twilight 5:57 AM ICT 6:58 PM ICT
Nautical Twilight 5:33 AM ICT 7:22 PM ICT
Astronomical Twilight 5:08 AM ICT 7:47 PM ICT
Moon 8:06 AM ICT 8:24 PM ICT
Length of Visible Light 13h 00m
Length of Day
12h 17m
Tomorrow will be 0m 26s shorter.
Waxing Crescent, 6% of the Moon is Illuminated
Aug 27
Waxing Crescent
Sep 2
First Quarter
Sep 8
Full
Sep 15
Last Quarter
Sep 24
New

Yesterday's Extremes

Country Highs Country Lows

Community

WunderPhotos

Upload Photos

1,747,888 photos uploaded!

Nearby

Snow Depth

Not available.

Earthquake Activity

City Distance Mag. Time & Date
No recent earthquake activity has been reported nearby.
Minimum magnitude displayed is 2.5.

Coastal Water Temperatures

Place Temperature
No Stations Reporting

Nearby Weather Stations